createdAt,value
2023-03-11T00:00:48.279Z,0.00
2023-03-11T00:01:48.247Z,0.00
2023-03-11T00:02:48.148Z,0.00
2023-03-11T00:03:48.080Z,0.00
2023-03-11T00:04:48.006Z,0.00
2023-03-11T00:05:47.937Z,0.00
2023-03-11T00:06:47.874Z,0.00
2023-03-11T00:07:47.789Z,0.00
2023-03-11T00:08:47.759Z,0.00
2023-03-11T00:09:47.974Z,0.00
2023-03-11T00:10:47.622Z,0.00
2023-03-11T00:11:47.581Z,0.00
2023-03-11T00:12:47.465Z,0.00
2023-03-11T00:13:47.453Z,0.00
2023-03-11T00:14:47.402Z,0.00
2023-03-11T00:15:47.316Z,0.00
2023-03-11T00:16:47.289Z,0.00
2023-03-11T00:17:47.178Z,0.00
2023-03-11T00:18:47.112Z,0.00
2023-03-11T00:19:47.046Z,0.00
2023-03-11T00:20:46.983Z,0.00
2023-03-11T00:21:46.903Z,0.00
2023-03-11T00:22:46.855Z,0.00
2023-03-11T00:23:46.829Z,0.00
2023-03-11T00:24:46.731Z,0.00
2023-03-11T00:25:46.638Z,0.00
2023-03-11T00:26:46.607Z,0.00
2023-03-11T00:27:46.579Z,0.00
2023-03-11T00:28:46.512Z,0.00
2023-03-11T00:29:46.450Z,0.00
2023-03-11T00:30:46.411Z,0.00
2023-03-11T00:31:46.281Z,0.00
2023-03-11T00:32:46.254Z,0.00
2023-03-11T00:33:46.484Z,0.00
2023-03-11T00:34:46.062Z,0.00
2023-03-11T00:35:46.105Z,0.00
2023-03-11T00:36:45.961Z,0.00
2023-03-11T00:37:45.900Z,0.00
2023-03-11T00:38:45.865Z,0.00
2023-03-11T00:39:45.818Z,0.00
2023-03-11T00:40:45.717Z,0.00
2023-03-11T00:41:45.626Z,0.00
2023-03-11T00:42:45.553Z,0.00
2023-03-11T00:43:45.517Z,0.00
2023-03-11T00:44:45.479Z,0.00
2023-03-11T00:45:45.493Z,0.00
2023-03-11T00:46:45.329Z,0.00
2023-03-11T00:47:45.268Z,0.00
2023-03-11T00:48:45.197Z,0.00
2023-03-11T00:49:45.135Z,0.00
2023-03-11T00:50:45.041Z,0.00
2023-03-11T00:51:45.048Z,0.00
2023-03-11T00:52:44.938Z,0.00
2023-03-11T00:53:44.857Z,0.00
2023-03-11T00:54:44.815Z,0.00
2023-03-11T00:55:44.725Z,0.00
2023-03-11T00:56:44.685Z,0.00
2023-03-11T00:57:44.647Z,0.00
2023-03-11T00:58:44.559Z,0.00
2023-03-11T00:59:44.536Z,0.00
2023-03-11T01:00:44.472Z,0.00
2023-03-11T01:01:44.440Z,0.00
2023-03-11T01:02:44.306Z,0.00
2023-03-11T01:03:44.234Z,0.00
2023-03-11T01:04:44.293Z,0.00
2023-03-11T01:05:44.133Z,0.00
2023-03-11T01:06:45.530Z,0.00
2023-03-11T01:07:43.968Z,0.00
2023-03-11T01:08:43.919Z,0.00
2023-03-11T01:09:43.852Z,0.00
2023-03-11T01:10:43.824Z,0.00
2023-03-11T01:11:43.737Z,0.00
2023-03-11T01:12:43.695Z,0.00
2023-03-11T01:13:43.605Z,0.00
2023-03-11T01:14:43.577Z,0.00
2023-03-11T01:15:43.554Z,0.00
2023-03-11T01:16:43.444Z,0.00
2023-03-11T01:17:43.349Z,0.00
2023-03-11T01:18:43.266Z,0.00
2023-03-11T01:19:43.219Z,0.00
2023-03-11T01:20:43.096Z,1.00
2023-03-11T01:22:04.108Z,0.00
2023-03-11T01:22:43.071Z,0.00
2023-03-11T01:23:42.965Z,0.00
2023-03-11T01:24:42.894Z,0.00
2023-03-11T01:25:42.814Z,0.00
2023-03-11T01:26:42.773Z,0.00
2023-03-11T01:27:42.733Z,0.00
2023-03-11T01:28:42.658Z,0.00
2023-03-11T01:29:42.610Z,0.00
2023-03-11T01:30:42.650Z,0.00
2023-03-11T01:31:42.463Z,0.00
2023-03-11T01:32:42.429Z,0.00
2023-03-11T01:33:42.345Z,0.00
2023-03-11T01:34:42.272Z,0.00
2023-03-11T01:35:42.231Z,0.00
2023-03-11T01:36:42.169Z,0.00
2023-03-11T01:37:42.115Z,0.00
2023-03-11T01:38:42.026Z,0.00
2023-03-11T01:40:02.927Z,0.00
2023-03-11T01:40:41.866Z,0.00
2023-03-11T01:41:41.840Z,0.00
2023-03-11T01:42:41.730Z,0.00
2023-03-11T01:43:41.721Z,0.00
2023-03-11T01:44:41.655Z,0.00
2023-03-11T01:45:41.579Z,0.00
2023-03-11T01:46:41.509Z,0.00
2023-03-11T01:47:41.439Z,0.00
2023-03-11T01:48:41.331Z,1.00
2023-03-11T01:49:41.255Z,1.00
2023-03-11T01:50:41.217Z,0.00
2023-03-11T01:51:41.162Z,1.00
2023-03-11T01:52:41.034Z,1.00
2023-03-11T01:53:40.990Z,1.00
2023-03-11T01:54:40.995Z,0.00
2023-03-11T01:55:40.951Z,0.00
2023-03-11T01:56:40.857Z,0.00
2023-03-11T01:57:40.822Z,0.00
2023-03-11T01:58:40.711Z,0.00
2023-03-11T01:59:40.696Z,0.00
2023-03-11T02:00:40.604Z,0.00
2023-03-11T02:01:40.566Z,0.00
2023-03-11T02:02:40.580Z,0.00
2023-03-11T02:03:40.462Z,0.00
2023-03-11T02:04:40.353Z,0.00
2023-03-11T02:05:40.286Z,0.00
2023-03-11T02:06:40.223Z,0.00
2023-03-11T02:07:40.184Z,0.00
2023-03-11T02:08:40.125Z,0.00
2023-03-11T02:09:40.027Z,0.00
2023-03-11T02:10:39.946Z,0.00
2023-03-11T02:11:39.912Z,0.00
2023-03-11T02:12:39.819Z,0.00
2023-03-11T02:13:39.780Z,0.00
2023-03-11T02:14:39.717Z,0.00
2023-03-11T02:16:00.767Z,0.00
2023-03-11T02:16:39.566Z,0.00
2023-03-11T02:17:39.552Z,0.00
2023-03-11T02:18:39.468Z,0.00
2023-03-11T02:19:39.432Z,0.00
2023-03-11T02:20:39.337Z,0.00
2023-03-11T02:21:39.305Z,0.00
2023-03-11T02:22:39.204Z,0.00
2023-03-11T02:23:39.146Z,0.00
2023-03-11T02:24:39.059Z,0.00
2023-03-11T02:25:39.053Z,0.00
2023-03-11T02:26:39.912Z,0.00
2023-03-11T02:27:38.883Z,0.00
2023-03-11T02:28:38.830Z,0.00
2023-03-11T02:29:38.744Z,0.00
2023-03-11T02:30:38.686Z,0.00
2023-03-11T02:31:40.215Z,0.00
2023-03-11T02:32:38.666Z,0.00
2023-03-11T02:33:38.531Z,0.00
2023-03-11T02:34:38.473Z,0.00
2023-03-11T02:35:38.488Z,0.00
2023-03-11T02:36:38.351Z,0.00
2023-03-11T02:37:38.283Z,0.00
2023-03-11T02:38:38.178Z,0.00
2023-03-11T02:39:39.609Z,0.00
2023-03-11T02:40:38.047Z,0.00
2023-03-11T02:41:37.981Z,0.00
2023-03-11T02:42:37.942Z,0.00
2023-03-11T02:43:37.848Z,0.00
2023-03-11T02:44:37.810Z,0.00
2023-03-11T02:45:38.026Z,0.00
2023-03-11T02:46:37.741Z,0.00
2023-03-11T02:47:37.594Z,0.00
2023-03-11T02:48:37.563Z,0.00
2023-03-11T02:49:37.500Z,0.00
2023-03-11T02:50:37.422Z,0.00
2023-03-11T02:51:58.416Z,0.00
2023-03-11T02:52:37.328Z,0.00
2023-03-11T02:53:37.214Z,0.00
2023-03-11T02:54:37.170Z,0.00
2023-03-11T02:55:37.112Z,0.00
2023-03-11T02:56:37.027Z,0.00
2023-03-11T02:57:37.025Z,0.00
2023-03-11T02:58:36.914Z,0.00
2023-03-11T02:59:36.835Z,0.00
2023-03-11T03:00:36.816Z,0.00
2023-03-11T03:01:36.729Z,0.00
2023-03-11T03:02:36.632Z,0.00
2023-03-11T03:03:36.619Z,0.00
2023-03-11T03:04:36.577Z,0.00
2023-03-11T03:05:36.467Z,0.00
2023-03-11T03:06:36.384Z,0.00
2023-03-11T03:07:36.318Z,0.00
2023-03-11T03:08:36.274Z,0.00
2023-03-11T03:09:57.190Z,0.00
2023-03-11T03:10:36.173Z,0.00
2023-03-11T03:11:36.083Z,0.00
2023-03-11T03:12:36.022Z,0.00
2023-03-11T03:13:35.960Z,0.00
2023-03-11T03:14:35.930Z,0.00
2023-03-11T03:16:00.199Z,0.00
2023-03-11T03:16:35.799Z,0.00
2023-03-11T03:17:35.717Z,0.00
2023-03-11T03:18:35.619Z,0.00
2023-03-11T03:19:35.550Z,0.00
2023-03-11T03:20:35.515Z,0.00
2023-03-11T03:21:35.464Z,0.00
2023-03-11T03:22:35.384Z,0.00
2023-03-11T03:23:35.330Z,0.00
2023-03-11T03:24:35.253Z,0.00
2023-03-11T03:25:35.195Z,0.00
2023-03-11T03:26:35.157Z,0.00
2023-03-11T03:27:56.085Z,0.00
2023-03-11T03:28:34.977Z,0.00
2023-03-11T03:29:34.920Z,0.00
2023-03-11T03:30:34.881Z,0.00
2023-03-11T03:31:34.854Z,0.00
2023-03-11T03:32:34.812Z,0.00
2023-03-11T03:33:34.705Z,0.00
2023-03-11T03:34:34.618Z,0.00
2023-03-11T03:35:34.610Z,0.00
2023-03-11T03:36:34.492Z,0.00
2023-03-11T03:37:34.403Z,0.00
2023-03-11T03:38:34.373Z,0.00
2023-03-11T03:39:34.284Z,0.00
2023-03-11T03:40:34.280Z,0.00
2023-03-11T03:41:34.173Z,0.00
2023-03-11T03:42:34.109Z,0.00
2023-03-11T03:43:34.034Z,0.00
2023-03-11T03:44:34.007Z,0.00
2023-03-11T03:45:33.931Z,0.00
2023-03-11T03:46:33.854Z,0.00
2023-03-11T03:47:33.805Z,0.00
2023-03-11T03:48:33.727Z,0.00
2023-03-11T03:49:33.665Z,0.00
2023-03-11T03:50:33.601Z,0.00
2023-03-11T03:51:33.839Z,0.00
2023-03-11T03:52:33.477Z,0.00
2023-03-11T03:53:33.421Z,0.00
2023-03-11T03:54:33.356Z,0.00
2023-03-11T03:55:33.276Z,0.00
2023-03-11T03:56:33.197Z,0.00
2023-03-11T03:57:33.165Z,0.00
2023-03-11T03:58:33.103Z,0.00
2023-03-11T03:59:33.055Z,0.00
2023-03-11T04:00:32.937Z,0.00
2023-03-11T04:01:32.934Z,0.00
2023-03-11T04:02:32.858Z,0.00
2023-03-11T04:03:53.764Z,0.00
2023-03-11T04:04:32.689Z,0.00
2023-03-11T04:05:32.674Z,0.00
2023-03-11T04:06:32.584Z,0.00
2023-03-11T04:07:32.557Z,0.00
2023-03-11T04:08:32.455Z,0.00
2023-03-11T04:09:32.420Z,0.00
2023-03-11T04:10:32.308Z,0.00
2023-03-11T04:11:32.288Z,0.00
2023-03-11T04:12:32.183Z,0.00
2023-03-11T04:13:32.138Z,0.00
2023-03-11T04:14:32.090Z,0.00
2023-03-11T04:15:32.060Z,0.00
2023-03-11T04:16:32.054Z,0.00
2023-03-11T04:17:31.889Z,0.00
2023-03-11T04:18:31.799Z,0.00
2023-03-11T04:19:31.761Z,0.00
2023-03-11T04:20:31.681Z,0.00
2023-03-11T04:21:31.663Z,0.00
2023-03-11T04:22:31.576Z,0.00
2023-03-11T04:23:31.504Z,0.00
2023-03-11T04:24:31.443Z,0.00
2023-03-11T04:25:31.404Z,0.00
2023-03-11T04:26:31.320Z,0.00
2023-03-11T04:27:31.307Z,0.00
2023-03-11T04:28:31.164Z,0.00
2023-03-11T04:29:31.165Z,0.00
2023-03-11T04:30:31.054Z,0.00
2023-03-11T04:31:30.968Z,0.00
2023-03-11T04:32:30.964Z,0.00
2023-03-11T04:33:30.880Z,0.00
2023-03-11T04:34:30.827Z,0.00
2023-03-11T04:35:30.747Z,0.00
2023-03-11T04:36:30.669Z,0.00
2023-03-11T04:37:30.587Z,0.00
2023-03-11T04:38:30.538Z,0.00
2023-03-11T04:39:51.456Z,0.00
2023-03-11T04:40:30.412Z,0.00
2023-03-11T04:41:30.350Z,0.00
2023-03-11T04:42:30.279Z,0.00
2023-03-11T04:43:30.246Z,0.00
2023-03-11T04:44:30.166Z,0.00
2023-03-11T04:45:30.113Z,0.00
2023-03-11T04:46:30.090Z,0.00
2023-03-11T04:47:29.937Z,0.00
2023-03-11T04:48:29.897Z,0.00
2023-03-11T04:49:29.809Z,0.00
2023-03-11T04:50:29.774Z,0.00
2023-03-11T04:51:29.714Z,0.00
2023-03-11T04:52:29.679Z,0.00
2023-03-11T04:53:29.609Z,0.00
2023-03-11T04:54:29.522Z,0.00
2023-03-11T04:55:29.454Z,0.00
2023-03-11T04:56:29.369Z,0.00
2023-03-11T04:57:50.307Z,0.00
2023-03-11T04:58:29.239Z,0.00
2023-03-11T04:59:29.255Z,0.00
2023-03-11T05:00:29.133Z,0.00
2023-03-11T05:01:29.105Z,0.00
2023-03-11T05:02:28.988Z,0.00
2023-03-11T05:03:28.998Z,0.00
2023-03-11T05:04:28.974Z,0.00
2023-03-11T05:05:28.817Z,0.00
2023-03-11T05:06:28.756Z,0.00
2023-03-11T05:07:28.689Z,0.00
2023-03-11T05:08:28.620Z,0.00
2023-03-11T05:09:28.583Z,0.00
2023-03-11T05:10:30.176Z,0.00
2023-03-11T05:11:28.406Z,0.00
2023-03-11T05:12:28.378Z,0.00
2023-03-11T05:13:28.306Z,0.00
2023-03-11T05:14:28.273Z,0.00
2023-03-11T05:15:28.226Z,0.00
2023-03-11T05:16:28.228Z,0.00
2023-03-11T05:17:28.027Z,0.00
2023-03-11T05:18:27.987Z,0.00
2023-03-11T05:19:27.933Z,0.00
2023-03-11T05:20:27.816Z,1.00
2023-03-11T05:21:27.807Z,0.00
2023-03-11T05:22:27.678Z,1.00
2023-03-11T05:23:27.605Z,1.00
2023-03-11T05:24:27.547Z,1.00
2023-03-11T05:25:27.502Z,2.00
2023-03-11T05:26:27.424Z,2.00
2023-03-11T05:27:27.374Z,1.00
2023-03-11T05:28:27.275Z,1.00
2023-03-11T05:29:27.282Z,2.00
2023-03-11T05:30:27.149Z,2.00
2023-03-11T05:31:27.194Z,3.00
2023-03-11T05:32:27.162Z,7.00
2023-03-11T05:33:27.007Z,5.00
2023-03-11T05:34:26.917Z,8.00
2023-03-11T05:35:26.904Z,7.00
2023-03-11T05:36:26.818Z,5.00
2023-03-11T05:37:26.748Z,6.00
2023-03-11T05:38:26.689Z,10.00
2023-03-11T05:39:26.618Z,10.00
2023-03-11T05:40:26.536Z,9.00
2023-03-11T05:41:26.501Z,9.00
2023-03-11T05:42:26.438Z,15.00
2023-03-11T05:43:26.371Z,16.00
2023-03-11T05:44:26.313Z,19.00
2023-03-11T05:45:26.220Z,23.00
2023-03-11T05:46:26.178Z,29.00
2023-03-11T05:47:26.124Z,36.00
2023-03-11T05:48:26.028Z,44.00
2023-03-11T05:49:25.963Z,49.00
2023-03-11T05:50:25.906Z,52.00
2023-03-11T05:51:25.846Z,53.00
2023-03-11T05:52:25.800Z,55.00
2023-03-11T05:53:25.708Z,61.00
2023-03-11T05:54:25.642Z,64.00
2023-03-11T05:55:25.584Z,65.00
2023-03-11T05:56:25.503Z,74.00
2023-03-11T05:57:25.446Z,78.00
2023-03-11T05:58:25.474Z,82.00
2023-03-11T05:59:25.352Z,81.00
2023-03-11T06:00:25.263Z,83.00
2023-03-11T06:01:25.173Z,87.00
2023-03-11T06:02:25.115Z,91.00
2023-03-11T06:03:46.332Z,98.00
2023-03-11T06:04:25.270Z,103.00
2023-03-11T06:05:25.021Z,107.00
2023-03-11T06:06:24.850Z,105.00
2023-03-11T06:07:24.813Z,104.00
2023-03-11T06:08:24.724Z,96.00
2023-03-11T06:10:33.875Z,128.00
2023-03-11T06:11:34.780Z,122.00
2023-03-11T06:12:34.721Z,136.00
2023-03-11T06:13:34.661Z,143.00
2023-03-11T06:14:34.623Z,145.00
2023-03-11T06:15:34.595Z,154.00
2023-03-11T06:16:34.541Z,143.00
2023-03-11T06:17:34.461Z,149.00
2023-03-11T06:18:34.394Z,163.00
2023-03-11T06:19:34.268Z,161.00
2023-03-11T06:20:34.237Z,168.00
2023-03-11T06:21:34.236Z,158.00
2023-03-11T06:22:34.104Z,160.00
2023-03-11T06:23:34.038Z,178.00
2023-03-11T06:24:33.951Z,161.00
2023-03-11T06:25:33.910Z,166.00
2023-03-11T06:26:33.851Z,168.00
2023-03-11T06:28:42.945Z,195.00
2023-03-11T06:29:43.920Z,194.00
2023-03-11T06:30:43.806Z,206.00
2023-03-11T06:31:43.833Z,202.00
2023-03-11T06:32:43.803Z,188.00
2023-03-11T06:33:43.654Z,175.00
2023-03-11T06:34:43.606Z,166.00
2023-03-11T06:35:43.533Z,167.00
2023-03-11T06:36:43.446Z,194.00
2023-03-11T06:37:43.361Z,174.00
2023-03-11T06:38:43.351Z,135.00
2023-03-11T06:39:43.274Z,153.00
2023-03-11T06:40:43.228Z,172.00
2023-03-11T06:41:43.138Z,199.00
2023-03-11T06:42:43.051Z,203.00
2023-03-11T06:43:43.001Z,196.00
2023-03-11T06:44:42.918Z,198.00
2023-03-11T06:46:03.890Z,227.00
2023-03-11T06:46:42.854Z,236.00
2023-03-11T06:47:42.747Z,236.00
2023-03-11T06:48:42.664Z,266.00
2023-03-11T06:49:42.599Z,279.00
2023-03-11T06:50:42.535Z,270.00
2023-03-11T06:51:42.545Z,303.00
2023-03-11T06:52:42.460Z,309.00
2023-03-11T06:53:42.393Z,314.00
2023-03-11T06:54:42.282Z,348.00
2023-03-11T06:55:42.243Z,409.00
2023-03-11T06:56:42.149Z,404.00
2023-03-11T06:57:42.154Z,448.00
2023-03-11T06:58:42.053Z,541.00
2023-03-11T06:59:41.982Z,820.00
2023-03-11T07:00:42.848Z,876.00
2023-03-11T07:01:41.884Z,978.00
2023-03-11T07:02:41.794Z,925.00
2023-03-11T07:04:02.811Z,863.00
2023-03-11T07:04:41.672Z,820.00
2023-03-11T07:05:41.574Z,724.00
2023-03-11T07:06:41.536Z,679.00
2023-03-11T07:07:41.447Z,777.00
2023-03-11T07:08:41.412Z,861.00
2023-03-11T07:09:41.394Z,854.00
2023-03-11T07:10:41.285Z,839.00
2023-03-11T07:11:41.248Z,830.00
2023-03-11T07:12:41.162Z,843.00
2023-03-11T07:13:41.134Z,888.00
2023-03-11T07:14:41.057Z,1004.00
2023-03-11T07:15:40.970Z,961.00
2023-03-11T07:16:40.991Z,1080.00
2023-03-11T07:17:40.845Z,1245.00
2023-03-11T07:18:40.750Z,1148.00
2023-03-11T07:19:40.738Z,1827.00
2023-03-11T07:20:40.666Z,1062.00
2023-03-11T07:22:10.784Z,763.00
2023-03-11T07:22:40.547Z,3640.00
2023-03-11T07:23:40.465Z,3642.00
2023-03-11T07:24:40.398Z,3680.00
2023-03-11T07:25:40.306Z,3688.00
2023-03-11T07:26:41.212Z,3950.00
2023-03-11T07:27:40.230Z,5145.00
2023-03-11T07:28:40.139Z,1869.00
2023-03-11T07:29:40.103Z,4639.00
2023-03-11T07:30:40.045Z,3114.00
2023-03-11T07:31:39.963Z,2955.00
2023-03-11T07:32:39.928Z,6119.00
2023-03-11T07:33:39.841Z,2899.00
2023-03-11T07:34:39.740Z,4856.00
2023-03-11T07:35:39.706Z,5500.00
2023-03-11T07:36:39.632Z,3907.00
2023-03-11T07:37:39.596Z,3030.00
2023-03-11T07:38:40.926Z,2719.00
2023-03-11T07:39:39.492Z,2310.00
2023-03-11T07:40:39.396Z,2681.00
2023-03-11T07:41:39.326Z,3892.00
2023-03-11T07:42:39.267Z,2830.00
2023-03-11T07:43:39.220Z,4180.00
2023-03-11T07:44:39.153Z,3534.00
2023-03-11T07:46:00.090Z,3264.00
2023-03-11T07:46:39.005Z,3435.00
2023-03-11T07:47:38.979Z,3397.00
2023-03-11T07:48:38.880Z,3530.00
2023-03-11T07:49:38.846Z,3132.00
2023-03-11T07:50:38.733Z,3603.00
2023-03-11T07:51:38.688Z,3471.00
2023-03-11T07:52:38.626Z,3519.00
2023-03-11T07:53:38.591Z,3188.00
2023-03-11T07:54:38.532Z,3027.00
2023-03-11T07:55:38.465Z,2625.00
2023-03-11T07:56:38.378Z,2594.00
2023-03-11T07:57:38.349Z,2601.00
2023-03-11T07:58:38.253Z,2608.00
2023-03-11T07:59:38.188Z,2701.00
2023-03-11T08:00:38.125Z,2727.00
2023-03-11T08:01:38.068Z,2496.00
2023-03-11T08:02:38.029Z,2459.00
2023-03-11T08:03:38.113Z,2302.00
2023-03-11T08:04:37.874Z,2256.00
2023-03-11T08:05:37.827Z,2550.00
2023-03-11T08:06:37.737Z,2683.00
2023-03-11T08:07:37.719Z,2705.00
2023-03-11T08:08:37.598Z,2579.00
2023-03-11T08:09:37.629Z,2640.00
2023-03-11T08:10:37.500Z,2812.00
2023-03-11T08:11:37.468Z,3795.00
2023-03-11T08:12:37.383Z,3297.00
2023-03-11T08:13:37.338Z,3120.00
2023-03-11T08:14:37.248Z,3006.00
2023-03-11T08:15:58.210Z,2981.00
2023-03-11T08:16:37.124Z,2680.00
2023-03-11T08:17:37.067Z,2259.00
2023-03-11T08:18:37.043Z,2119.00
2023-03-11T08:19:36.937Z,2227.00
2023-03-11T08:20:36.897Z,2226.00
2023-03-11T08:21:36.850Z,2027.00
2023-03-11T08:22:39.477Z,2061.00
2023-03-11T08:23:36.717Z,2324.00
2023-03-11T08:24:36.619Z,2138.00
2023-03-11T08:25:36.567Z,2022.00
2023-03-11T08:26:36.469Z,1884.00
2023-03-11T08:27:36.450Z,2156.00
2023-03-11T08:28:36.397Z,2148.00
2023-03-11T08:29:36.339Z,2228.00
2023-03-11T08:30:36.250Z,2279.00
2023-03-11T08:31:36.321Z,2323.00
2023-03-11T08:32:36.144Z,2649.00
2023-03-11T08:33:57.067Z,2163.00
2023-03-11T08:34:35.996Z,2128.00
2023-03-11T08:35:35.974Z,2244.00
2023-03-11T08:36:35.896Z,2363.00
2023-03-11T08:37:35.788Z,2341.00
2023-03-11T08:38:35.786Z,2219.00
2023-03-11T08:39:35.733Z,2147.00
2023-03-11T08:40:35.624Z,2261.00
2023-03-11T08:41:35.561Z,2309.00
2023-03-11T08:42:37.134Z,2237.00
2023-03-11T08:43:35.406Z,2092.00
2023-03-11T08:44:35.340Z,1961.00
2023-03-11T08:45:35.366Z,2156.00
2023-03-11T08:46:35.282Z,1979.00
2023-03-11T08:47:35.180Z,2165.00
2023-03-11T08:48:35.091Z,2023.00
2023-03-11T08:49:35.024Z,1997.00
2023-03-11T08:50:47.404Z,2005.00
2023-03-11T08:51:34.948Z,1956.00
2023-03-11T08:52:34.869Z,1901.00
2023-03-11T08:53:34.801Z,1770.00
2023-03-11T08:54:34.732Z,1967.00
2023-03-11T08:55:34.677Z,1957.00
2023-03-11T08:56:34.605Z,2025.00
2023-03-11T08:57:34.555Z,2008.00
2023-03-11T08:58:34.508Z,2361.00
2023-03-11T08:59:34.444Z,2587.00
2023-03-11T09:00:34.363Z,2597.00
2023-03-11T09:01:34.317Z,2549.00
2023-03-11T09:02:34.304Z,2392.00
2023-03-11T09:03:34.188Z,2818.00
2023-03-11T09:04:34.143Z,3139.00
2023-03-11T09:05:34.068Z,3340.00
2023-03-11T09:06:33.978Z,3490.00
2023-03-11T09:07:33.890Z,3303.00
2023-03-11T09:08:33.822Z,3377.00
2023-03-11T09:09:54.761Z,3241.00
2023-03-11T09:10:33.717Z,3333.00
2023-03-11T09:11:33.631Z,3132.00
2023-03-11T09:12:33.606Z,3251.00
2023-03-11T09:13:33.528Z,3222.00
2023-03-11T09:14:33.465Z,3107.00
2023-03-11T09:15:33.391Z,2908.00
2023-03-11T09:16:33.417Z,2920.00
2023-03-11T09:17:33.274Z,2859.00
2023-03-11T09:18:33.247Z,2896.00
2023-03-11T09:19:33.123Z,3199.00
2023-03-11T09:20:33.060Z,2930.00
2023-03-11T09:21:33.059Z,2562.00
2023-03-11T09:22:32.959Z,2713.00
2023-03-11T09:23:32.928Z,2780.00
2023-03-11T09:24:32.811Z,3078.00
2023-03-11T09:25:32.795Z,2831.00
2023-03-11T09:26:32.738Z,3225.00
2023-03-11T09:27:32.665Z,3100.00
2023-03-11T09:28:32.609Z,2850.00
2023-03-11T09:29:32.530Z,2751.00
2023-03-11T09:30:32.468Z,2594.00
2023-03-11T09:31:32.472Z,2810.00
2023-03-11T09:32:32.386Z,2592.00
2023-03-11T09:33:32.281Z,2748.00
2023-03-11T09:34:32.231Z,2471.00
2023-03-11T09:35:32.193Z,2805.00
2023-03-11T09:36:32.080Z,2856.00
2023-03-11T09:37:32.021Z,2557.00
2023-03-11T09:38:31.955Z,2351.00
2023-03-11T09:39:31.879Z,2601.00
2023-03-11T09:40:31.837Z,2295.00
2023-03-11T09:41:31.764Z,2095.00
2023-03-11T09:42:31.675Z,2283.00
2023-03-11T09:43:31.652Z,2380.00
2023-03-11T09:44:31.615Z,2049.00
2023-03-11T09:45:31.531Z,2065.00
2023-03-11T09:46:31.464Z,2158.00
2023-03-11T09:47:31.393Z,2349.00
2023-03-11T09:48:31.326Z,2428.00
2023-03-11T09:49:31.265Z,2323.00
2023-03-11T09:50:31.178Z,2410.00
2023-03-11T09:51:31.159Z,2099.00
2023-03-11T09:52:31.070Z,1938.00
2023-03-11T09:53:31.013Z,1884.00
2023-03-11T09:54:30.944Z,2159.00
2023-03-11T09:55:30.916Z,2334.00
2023-03-11T09:56:30.858Z,2577.00
2023-03-11T09:57:30.795Z,2410.00
2023-03-11T09:58:30.733Z,2573.00
2023-03-11T09:59:30.645Z,2515.00
2023-03-11T10:00:30.542Z,2786.00
2023-03-11T10:01:30.509Z,2923.00
2023-03-11T10:02:30.615Z,3128.00
2023-03-11T10:03:51.390Z,3206.00
2023-03-11T10:04:30.291Z,2849.00
2023-03-11T10:05:30.228Z,2626.00
2023-03-11T10:06:30.195Z,2560.00
2023-03-11T10:07:30.160Z,2753.00
2023-03-11T10:08:30.041Z,2991.00
2023-03-11T10:09:30.072Z,2962.00
2023-03-11T10:10:29.940Z,2896.00
2023-03-11T10:11:29.900Z,3149.00
2023-03-11T10:12:29.795Z,3736.00
2023-03-11T10:13:29.774Z,3758.00
2023-03-11T10:14:29.750Z,3578.00
2023-03-11T10:15:29.647Z,4676.00
2023-03-11T10:16:29.626Z,4183.00
2023-03-11T10:17:29.472Z,3959.00
2023-03-11T10:18:29.449Z,3926.00
2023-03-11T10:19:29.371Z,4055.00
2023-03-11T10:20:29.326Z,3474.00
2023-03-11T10:21:29.291Z,3158.00
2023-03-11T10:22:29.183Z,3464.00
2023-03-11T10:23:29.094Z,4028.00
2023-03-11T10:24:29.060Z,3795.00
2023-03-11T10:25:29.007Z,3291.00
2023-03-11T10:26:28.932Z,3310.00
2023-03-11T10:27:28.908Z,3921.00
2023-03-11T10:28:28.839Z,4012.00
2023-03-11T10:29:28.745Z,4065.00
2023-03-11T10:30:28.658Z,3786.00
2023-03-11T10:31:28.683Z,3282.00
2023-03-11T10:32:28.562Z,3370.00
2023-03-11T10:33:28.504Z,3247.00
2023-03-11T10:34:28.464Z,3059.00
2023-03-11T10:35:28.403Z,3822.00
2023-03-11T10:36:28.289Z,3840.00
2023-03-11T10:37:38.886Z,3173.00
2023-03-11T10:38:28.219Z,2975.00
2023-03-11T10:39:28.131Z,2667.00
2023-03-11T10:40:28.030Z,2604.00
2023-03-11T10:41:27.973Z,3045.00
2023-03-11T10:42:27.966Z,2864.00
2023-03-11T10:43:27.869Z,2475.00
2023-03-11T10:44:27.820Z,2495.00
2023-03-11T10:45:27.728Z,2697.00
2023-03-11T10:46:27.658Z,2584.00
2023-03-11T10:47:27.655Z,2098.00
2023-03-11T10:48:27.558Z,1966.00
2023-03-11T10:49:27.523Z,1993.00
2023-03-11T10:50:27.458Z,3035.00
2023-03-11T10:51:27.646Z,2652.00
2023-03-11T10:52:27.282Z,3523.00
2023-03-11T10:53:27.251Z,3197.00
2023-03-11T10:54:27.191Z,3870.00
2023-03-11T10:55:27.142Z,2615.00
2023-03-11T10:56:27.056Z,5861.00
2023-03-11T10:57:27.016Z,3922.00
2023-03-11T10:58:26.929Z,2787.00
2023-03-11T10:59:26.897Z,4218.00
2023-03-11T11:00:26.815Z,5429.00
2023-03-11T11:01:26.834Z,6008.00
2023-03-11T11:02:26.677Z,5674.00
2023-03-11T11:03:26.677Z,1155.00
2023-03-11T11:04:26.618Z,6008.00
2023-03-11T11:05:26.500Z,5694.00
2023-03-11T11:06:26.409Z,6440.00
2023-03-11T11:07:26.398Z,1949.00
2023-03-11T11:08:26.312Z,11928.00
2023-03-11T11:09:27.099Z,3547.00
2023-03-11T11:10:26.161Z,3205.00
2023-03-11T11:11:26.100Z,2923.00
2023-03-11T11:12:26.058Z,2502.00
2023-03-11T11:13:26.012Z,2788.00
2023-03-11T11:14:25.937Z,2750.00
2023-03-11T11:15:46.828Z,3260.00
2023-03-11T11:16:25.824Z,3162.00
2023-03-11T11:17:25.777Z,3140.00
2023-03-11T11:18:25.713Z,2666.00
2023-03-11T11:19:25.600Z,3089.00
2023-03-11T11:20:25.580Z,2894.00
2023-03-11T11:21:25.542Z,2845.00
2023-03-11T11:22:25.438Z,2358.00
2023-03-11T11:23:25.378Z,1978.00
2023-03-11T11:24:25.340Z,2157.00
2023-03-11T11:25:25.343Z,2401.00
2023-03-11T11:26:25.189Z,2792.00
2023-03-11T11:27:25.119Z,4114.00
2023-03-11T11:28:25.075Z,3873.00
2023-03-11T11:29:25.001Z,2789.00
2023-03-11T11:30:24.967Z,2754.00
2023-03-11T11:31:24.882Z,2737.00
2023-03-11T11:32:24.895Z,2658.00
2023-03-11T11:33:24.748Z,2705.00
2023-03-11T11:34:24.698Z,2387.00
2023-03-11T11:35:24.652Z,2116.00
2023-03-11T11:36:24.577Z,2080.00
2023-03-11T11:37:24.476Z,2187.00
2023-03-11T11:38:24.470Z,2122.00
2023-03-11T11:39:24.400Z,2120.00
2023-03-11T11:40:24.346Z,2416.00
2023-03-11T11:41:24.256Z,2184.00
2023-03-11T11:42:24.216Z,2384.00
2023-03-11T11:43:24.159Z,2365.00
2023-03-11T11:44:24.065Z,2751.00
2023-03-11T11:45:24.056Z,2921.00
2023-03-11T11:46:24.026Z,3129.00
2023-03-11T11:47:23.880Z,2413.00
2023-03-11T11:48:23.843Z,3444.00
2023-03-11T11:49:23.837Z,2651.00
2023-03-11T11:50:23.673Z,2327.00
2023-03-11T11:51:23.655Z,2456.00
2023-03-11T11:52:23.591Z,2295.00
2023-03-11T11:53:23.508Z,1946.00
2023-03-11T11:54:23.420Z,1983.00
2023-03-11T11:55:23.401Z,1763.00
2023-03-11T11:56:23.345Z,1625.00
2023-03-11T11:57:23.401Z,1565.00
2023-03-11T11:58:23.162Z,1514.00
2023-03-11T11:59:23.153Z,1519.00
2023-03-11T12:00:23.077Z,1504.00
2023-03-11T12:01:23.000Z,1654.00
2023-03-11T12:02:23.051Z,1706.00
2023-03-11T12:03:22.916Z,1659.00
2023-03-11T12:04:22.814Z,1479.00
2023-03-11T12:05:22.793Z,1384.00
2023-03-11T12:06:22.736Z,1911.00
2023-03-11T12:07:22.627Z,2474.00
2023-03-11T12:08:22.622Z,2377.00
2023-03-11T12:12:00.825Z,2046.00
2023-03-11T12:13:01.793Z,2087.00
2023-03-11T12:14:01.725Z,1966.00
2023-03-11T12:15:01.652Z,1964.00
2023-03-11T12:16:01.588Z,1881.00
2023-03-11T12:17:03.930Z,2062.00
2023-03-11T12:18:01.477Z,2010.00
2023-03-11T12:19:01.353Z,2329.00
2023-03-11T12:20:01.381Z,2312.00
2023-03-11T12:21:01.542Z,1459.00
2023-03-11T12:22:01.198Z,3020.00
2023-03-11T12:23:01.128Z,3472.00
2023-03-11T12:24:01.096Z,2213.00
2023-03-11T12:25:01.034Z,3245.00
2023-03-11T12:26:00.925Z,3259.00
2023-03-11T12:27:00.923Z,2122.00
2023-03-11T12:28:00.817Z,2393.00
2023-03-11T12:29:00.778Z,2438.00
2023-03-11T12:30:00.728Z,2168.00
2023-03-11T12:31:00.716Z,2036.00
2023-03-11T12:32:00.597Z,1979.00
2023-03-11T12:33:00.503Z,1824.00
2023-03-11T12:34:00.467Z,1803.00
2023-03-11T12:35:00.378Z,1782.00
2023-03-11T12:36:00.561Z,1917.00
2023-03-11T12:37:00.231Z,1733.00
2023-03-11T12:38:00.191Z,1695.00
2023-03-11T12:39:00.124Z,1866.00
2023-03-11T12:40:00.046Z,1889.00
2023-03-11T12:41:00.004Z,1924.00
2023-03-11T12:41:59.964Z,2112.00
2023-03-11T12:42:59.852Z,1833.00
2023-03-11T12:43:59.833Z,2388.00
2023-03-11T12:46:38.724Z,1970.00